Time;durP1;ratioP1;P1;durP2;ratioP2;P2;SDS_P1;SDS_P2;PMS_P1;PMS_P2;Temp;Humidity;BMP_temperature;BMP_pressure;BME280_temperature;BME280_humidity;BME280_pressure;Samples;Min_cycle;Max_cycle;Signal;HPM_P1;HPM_P2
2021/05/03 00:00:07;;;;;;;5.20;3.33;;;;;;;6.86;57.78;100722.50;5115723;28;20482;-62
2021/05/03 00:02:34;;;;;;;4.37;3.97;;;;;;;6.84;57.63;100718.22;5102770;28;20491;-61
2021/05/03 00:05:01;;;;;;;7.00;4.37;;;;;;;6.83;57.79;100720.06;5103131;28;20447;-62
2021/05/03 00:07:27;;;;;;;7.00;5.00;;;;;;;6.79;58.15;100715.91;5101887;28;20478;-62
2021/05/03 00:09:54;;;;;;;7.33;4.47;;;;;;;6.77;58.11;100717.81;5115888;28;20459;-62
2021/05/03 00:12:20;;;;;;;4.77;4.27;;;;;;;6.67;58.27;100722.06;5109189;28;20517;-62
2021/05/03 00:14:47;;;;;;;5.27;3.87;;;;;;;6.73;58.19;100721.63;5120001;28;20442;-62
2021/05/03 00:17:13;;;;;;;4.90;3.90;;;;;;;6.78;57.97;100709.72;5101588;28;20483;-62
2021/05/03 00:19:40;;;;;;;6.30;4.27;;;;;;;6.63;58.41;100716.09;5102370;28;20541;-62
2021/05/03 00:22:06;;;;;;;4.97;4.47;;;;;;;6.62;58.44;100729.50;5105213;28;20958;-61
2021/05/03 00:24:32;;;;;;;6.90;4.50;;;;;;;6.63;58.47;100725.88;5111243;28;20450;-61
2021/05/03 00:26:58;;;;;;;5.37;4.10;;;;;;;6.75;58.11;100725.91;5108609;28;20466;-62
2021/05/03 00:29:24;;;;;;;6.87;4.50;;;;;;;6.73;58.08;100727.78;5105862;28;20443;-61
2021/05/03 00:31:51;;;;;;;5.20;4.70;;;;;;;6.63;58.31;100721.41;5116404;28;20882;-62
2021/05/03 00:34:18;;;;;;;8.73;4.80;;;;;;;6.66;58.31;100723.84;5102893;28;20431;-62
2021/05/03 00:36:44;;;;;;;6.10;4.57;;;;;;;6.49;58.67;100722.34;5102819;28;20514;-62
2021/05/03 00:39:11;;;;;;;5.30;3.93;;;;;;;6.59;58.63;100727.88;5101643;28;20459;-61
2021/05/03 00:41:37;;;;;;;5.77;4.63;;;;;;;6.51;58.94;100720.44;5117126;27;20494;-61
2021/05/03 00:44:04;;;;;;;6.60;5.33;;;;;;;6.60;58.58;100725.13;5123177;28;20474;-62
2021/05/03 00:46:30;;;;;;;6.27;4.63;;;;;;;6.51;58.76;100724.88;5104424;28;20486;-62
2021/05/03 00:48:57;;;;;;;8.17;6.00;;;;;;;6.37;59.43;100726.66;5107890;28;20435;-61
2021/05/03 00:51:24;;;;;;;8.97;6.80;;;;;;;6.58;58.87;100728.84;5119373;27;20485;-61
2021/05/03 00:53:50;;;;;;;8.13;4.60;;;;;;;6.25;59.74;100739.88;5102411;28;20427;-62
2021/05/03 00:56:16;;;;;;;5.93;4.70;;;;;;;6.45;59.22;100738.59;5118124;27;20472;-61
2021/05/03 00:58:43;;;;;;;6.03;4.83;;;;;;;6.36;59.42;100735.56;5122314;28;20461;-61
2021/05/03 01:01:09;;;;;;;6.37;5.20;;;;;;;6.38;59.47;100736.31;5105812;28;20988;-61
2021/05/03 01:03:36;;;;;;;5.83;5.20;;;;;;;6.11;60.27;100730.16;5102639;28;20514;-61
2021/05/03 01:06:03;;;;;;;6.83;5.40;;;;;;;6.39;59.60;100729.22;5101999;28;20471;-61
2021/05/03 01:08:29;;;;;;;7.30;5.30;;;;;;;6.25;59.84;100729.25;5112100;28;20443;-62
2021/05/03 01:10:56;;;;;;;10.87;5.60;;;;;;;6.37;59.42;100728.44;5120861;28;20536;-61
2021/05/03 01:13:22;;;;;;;7.90;5.10;;;;;;;6.26;59.85;100731.81;5113607;28;20489;-61
2021/05/03 01:15:48;;;;;;;5.87;4.90;;;;;;;6.32;59.92;100727.91;5112517;28;20466;-61
2021/05/03 01:18:14;;;;;;;11.03;4.83;;;;;;;6.26;59.99;100725.66;5120733;28;20442;-61
2021/05/03 01:20:41;;;;;;;6.73;4.87;;;;;;;6.27;59.88;100728.22;5121307;27;20478;-61
2021/05/03 01:23:08;;;;;;;6.33;5.60;;;;;;;6.34;60.01;100731.34;5109616;28;20534;-62
2021/05/03 01:25:37;;;;;;;5.93;4.87;;;;;;;6.45;59.44;100728.81;5101071;28;20471;-62
2021/05/03 01:28:04;;;;;;;7.03;5.80;;;;;;;6.35;59.42;100733.91;5114365;28;20450;-61
2021/05/03 01:30:32;;;;;;;6.57;5.20;;;;;;;6.17;60.33;100735.94;5111953;28;20466;-61
2021/05/03 01:32:58;;;;;;;6.83;5.63;;;;;;;6.23;60.07;100737.31;5120938;28;20458;-62
2021/05/03 01:35:25;;;;;;;5.63;5.13;;;;;;;6.00;61.00;100739.69;5120357;28;20489;-61
2021/05/03 01:37:52;;;;;;;10.10;6.27;;;;;;;5.85;61.43;100733.53;5101551;28;20941;-61
2021/05/03 01:40:20;;;;;;;5.80;5.30;;;;;;;5.98;61.20;100738.94;5100389;28;20998;-61
2021/05/03 01:42:46;;;;;;;6.60;5.50;;;;;;;6.09;61.01;100743.53;5081363;28;20487;-61
2021/05/03 01:45:13;;;;;;;7.90;5.77;;;;;;;6.20;60.86;100740.22;5088018;28;20468;-61
2021/05/03 01:47:40;;;;;;;9.23;6.17;;;;;;;6.11;61.20;100740.78;5100951;28;20492;-62
2021/05/03 01:50:08;;;;;;;7.43;4.90;;;;;;;6.21;60.67;100741.88;5101078;28;20444;-61
2021/05/03 01:52:35;;;;;;;11.93;5.50;;;;;;;6.10;60.93;100744.41;5101575;28;20447;-61
2021/05/03 01:55:02;;;;;;;6.70;5.53;;;;;;;6.39;60.74;100747.81;5101918;28;20507;-61
2021/05/03 01:57:29;;;;;;;7.00;5.53;;;;;;;6.19;60.41;100747.28;5100518;28;20528;-61
2021/05/03 01:59:55;;;;;;;9.23;5.50;;;;;;;6.32;60.72;100743.84;5108311;28;20486;-61
2021/05/03 02:02:21;;;;;;;6.30;5.57;;;;;;;6.09;61.03;100753.31;5121413;28;20841;-61
2021/05/03 02:04:48;;;;;;;6.60;5.50;;;;;;;6.04;61.08;100750.94;5106312;28;20446;-61
2021/05/03 02:07:14;;;;;;;6.23;4.70;;;;;;;6.02;61.60;100752.84;5100888;28;21021;-61
2021/05/03 02:09:42;;;;;;;9.03;5.23;;;;;;;6.03;61.71;100749.25;5113910;28;20464;-61
2021/05/03 02:12:09;;;;;;;7.70;5.33;;;;;;;5.92;61.99;100746.41;5119100;28;20458;-61
2021/05/03 02:14:36;;;;;;;6.33;5.03;;;;;;;6.16;61.12;100754.63;5102212;28;20439;-62
2021/05/03 02:17:03;;;;;;;8.60;5.20;;;;;;;6.07;61.56;100749.91;5120689;28;20469;-61
2021/05/03 02:19:29;;;;;;;6.87;5.57;;;;;;;6.15;61.57;100752.94;5105265;28;20442;-61
2021/05/03 02:21:55;;;;;;;6.47;5.03;;;;;;;6.24;61.02;100747.00;5120777;28;20486;-62
2021/05/03 02:24:21;;;;;;;7.57;5.40;;;;;;;5.92;61.89;100754.34;5120979;28;20528;-61
2021/05/03 02:26:47;;;;;;;6.23;5.30;;;;;;;6.11;61.56;100756.72;5112587;27;20504;-62
2021/05/03 02:29:13;;;;;;;8.13;5.20;;;;;;;6.22;61.13;100749.75;5102004;28;20455;-61
2021/05/03 02:31:41;;;;;;;7.00;5.40;;;;;;;6.09;61.37;100755.97;5120432;28;21087;-61
2021/05/03 02:34:07;;;;;;;7.10;6.40;;;;;;;6.16;61.39;100754.63;5125212;28;20475;-61
2021/05/03 02:36:33;;;;;;;8.80;5.40;;;;;;;6.05;61.75;100750.00;5115501;28;20532;-61
2021/05/03 02:38:59;;;;;;;6.93;5.43;;;;;;;6.13;61.23;100752.19;5104287;28;20427;-61
2021/05/03 02:41:25;;;;;;;6.50;5.20;;;;;;;6.19;61.07;100751.78;5118039;27;20490;-61
2021/05/03 02:43:51;;;;;;;6.67;6.00;;;;;;;6.15;61.26;100747.63;5125378;28;20502;-61
2021/05/03 02:46:18;;;;;;;6.70;5.30;;;;;;;6.08;61.43;100748.97;5120081;28;20493;-61
2021/05/03 02:48:45;;;;;;;10.10;6.07;;;;;;;5.88;61.83;100743.09;5124753;28;20446;-61
2021/05/03 02:51:11;;;;;;;8.97;5.47;;;;;;;5.78;62.46;100749.94;5119718;28;20477;-61
2021/05/03 02:53:37;;;;;;;7.67;4.87;;;;;;;5.89;62.15;100749.28;5124310;27;20460;-61
2021/05/03 02:56:04;;;;;;;7.60;5.70;;;;;;;5.79;62.11;100741.03;5124173;28;20470;-61
2021/05/03 02:58:30;;;;;;;7.97;5.90;;;;;;;5.91;62.07;100744.72;5121833;28;20458;-61
2021/05/03 03:00:56;;;;;;;8.20;5.60;;;;;;;5.95;61.79;100746.22;5115779;27;20454;-61
2021/05/03 03:03:22;;;;;;;6.47;5.60;;;;;;;5.66;62.90;100754.25;5123980;28;20496;-61
2021/05/03 03:05:49;;;;;;;7.40;6.10;;;;;;;5.76;62.73;100751.84;5103531;28;20482;-60
2021/05/03 03:08:15;;;;;;;9.90;5.67;;;;;;;5.88;62.23;100750.22;5111822;28;20450;-61
2021/05/03 03:10:42;;;;;;;8.63;5.90;;;;;;;5.63;62.97;100755.28;5122468;28;20470;-61
2021/05/03 03:13:08;;;;;;;6.90;6.13;;;;;;;5.70;62.51;100761.03;5122411;28;20453;-61
2021/05/03 03:15:35;;;;;;;9.37;5.90;;;;;;;5.64;62.99;100753.47;5113621;28;20462;-61
2021/05/03 03:18:03;;;;;;;8.50;7.03;;;;;;;5.74;62.49;100753.75;5107235;28;20447;-61
2021/05/03 03:20:29;;;;;;;8.30;5.63;;;;;;;5.69;62.30;100761.13;5123496;27;20462;-61
2021/05/03 03:22:56;;;;;;;7.50;5.33;;;;;;;5.67;62.83;100750.63;5108230;28;20498;-61
2021/05/03 03:25:23;;;;;;;6.87;5.83;;;;;;;5.69;62.71;100750.53;5103552;28;20451;-61
2021/05/03 03:27:49;;;;;;;8.83;6.13;;;;;;;5.60;63.43;100749.31;5109987;28;20464;-61
2021/05/03 03:30:17;;;;;;;7.77;5.83;;;;;;;5.64;63.26;100750.81;5116022;28;20451;-61
2021/05/03 03:32:44;;;;;;;6.60;5.80;;;;;;;5.67;63.08;100745.31;5114706;28;20445;-61
2021/05/03 03:35:12;;;;;;;6.93;6.00;;;;;;;5.73;63.00;100742.28;5121651;28;20438;-61
2021/05/03 03:37:38;;;;;;;8.63;6.40;;;;;;;5.76;63.29;100750.03;5103558;28;20458;-61
2021/05/03 03:40:06;;;;;;;11.63;6.97;;;;;;;5.78;62.93;100750.81;5102379;28;20462;-61
2021/05/03 03:42:32;;;;;;;8.57;6.70;;;;;;;5.77;63.19;100749.09;5104567;28;20453;-61
2021/05/03 03:44:59;;;;;;;8.60;6.73;;;;;;;6.01;62.56;100757.31;5108144;28;20572;-61
2021/05/03 03:47:25;;;;;;;9.73;6.87;;;;;;;6.20;62.03;100758.78;5103393;28;20485;-61
2021/05/03 03:49:52;;;;;;;9.93;6.80;;;;;;;6.30;61.74;100761.69;5121231;28;20504;-61
2021/05/03 03:52:18;;;;;;;9.77;6.70;;;;;;;6.26;62.06;100761.03;5122826;28;20500;-61
2021/05/03 03:54:45;;;;;;;12.60;6.90;;;;;;;6.12;62.37;100759.28;5108253;28;20459;-61
2021/05/03 03:57:12;;;;;;;7.43;5.97;;;;;;;6.21;62.43;100758.69;5102570;28;20497;-60
2021/05/03 03:59:41;;;;;;;9.37;6.50;;;;;;;6.05;62.74;100750.00;5115257;28;20586;-61
2021/05/03 04:02:07;;;;;;;8.50;7.00;;;;;;;6.21;62.35;100752.50;5121159;28;20496;-61
2021/05/03 04:04:35;;;;;;;7.67;6.80;;;;;;;6.56;61.70;100752.84;5109428;28;20466;-61
2021/05/03 04:07:06;;;;;;;10.43;8.00;;;;;;;7.19;59.29;100752.16;5102161;28;20489;-61
2021/05/03 04:09:38;;;;;;;10.70;7.37;;;;;;;7.42;59.00;100750.59;5119260;28;20438;-61
2021/05/03 04:12:27;;;;;;;7.63;5.80;;;;;;;7.62;57.60;100754.47;5116418;28;20462;-61
2021/05/03 04:23:43;;;;;;;7.67;6.00;;;;;;;8.32;55.55;100753.00;5102660;28;20493;-61
2021/05/03 04:26:09;;;;;;;8.43;5.90;;;;;;;7.18;58.47;100743.34;5108894;28;20477;-61
2021/05/03 04:28:36;;;;;;;7.60;6.60;;;;;;;7.22;58.88;100749.31;5104729;28;20431;-61
2021/05/03 04:31:03;;;;;;;6.57;5.80;;;;;;;7.14;59.32;100747.19;5113444;28;20866;-61
2021/05/03 04:33:29;;;;;;;11.23;6.53;;;;;;;7.10;59.64;100748.34;5101872;28;20443;-60
2021/05/03 04:35:55;;;;;;;10.40;6.20;;;;;;;6.83;59.66;100745.78;5099933;28;20720;-61
2021/05/03 04:38:21;;;;;;;9.93;6.27;;;;;;;6.61;60.97;100744.56;5109771;28;20944;-61
2021/05/03 04:40:48;;;;;;;8.07;6.53;;;;;;;6.89;60.08;100762.19;5099988;28;20547;-61
2021/05/03 04:43:15;;;;;;;8.30;6.33;;;;;;;7.09;59.40;100750.16;5100775;28;20483;-61
2021/05/03 04:45:41;;;;;;;8.50;6.40;;;;;;;7.24;58.68;100752.69;5103176;28;20471;-61
2021/05/03 04:48:08;;;;;;;8.77;6.60;;;;;;;6.68;61.04;100748.50;5105804;28;20458;-61
2021/05/03 04:50:34;;;;;;;9.27;6.37;;;;;;;6.95;59.88;100742.28;5099568;28;20478;-60
2021/05/03 04:53:01;;;;;;;8.20;6.60;;;;;;;6.65;60.76;100758.50;5103481;28;20454;-61
2021/05/03 04:55:27;;;;;;;7.37;6.53;;;;;;;6.90;60.17;100755.88;5100725;28;20471;-61
2021/05/03 04:57:53;;;;;;;9.13;6.13;;;;;;;6.54;61.07;100761.88;5099259;28;20455;-61
2021/05/03 05:00:20;;;;;;;13.87;7.30;;;;;;;6.82;60.46;100762.69;5100842;28;20455;-61
2021/05/03 05:02:46;;;;;;;8.70;7.13;;;;;;;6.49;61.37;100761.31;5120876;28;20490;-61
2021/05/03 05:05:13;;;;;;;11.10;7.30;;;;;;;6.62;60.77;100764.03;5098871;28;20459;-60
2021/05/03 05:07:41;;;;;;;13.80;6.77;;;;;;;6.57;61.42;100772.28;5100910;28;20432;-61
2021/05/03 05:10:08;;;;;;;10.70;7.70;;;;;;;6.50;62.06;100769.19;5099317;28;20900;-61
2021/05/03 05:12:35;;;;;;;8.60;7.50;;;;;;;6.71;61.02;100771.38;5110689;28;20447;-61
2021/05/03 05:15:01;;;;;;;10.53;7.60;;;;;;;6.51;61.67;100773.56;5105829;28;20474;-61
2021/05/03 05:17:27;;;;;;;8.47;6.90;;;;;;;6.69;61.43;100779.44;5109497;28;20467;-61
2021/05/03 05:19:54;;;;;;;8.40;6.80;;;;;;;6.57;61.35;100777.59;5104318;28;20557;-61
2021/05/03 05:22:21;;;;;;;8.10;6.87;;;;;;;6.52;61.85;100779.72;5099319;28;20491;-60
2021/05/03 05:24:47;;;;;;;7.43;6.37;;;;;;;6.84;60.52;100771.38;5100842;28;20504;-61
2021/05/03 05:27:13;;;;;;;12.03;7.00;;;;;;;7.09;60.21;100774.09;5100391;28;20479;-61
2021/05/03 05:29:39;;;;;;;11.73;6.40;;;;;;;6.75;60.74;100771.06;5101257;28;20455;-61
2021/05/03 05:32:06;;;;;;;9.37;7.60;;;;;;;6.86;60.76;100778.31;5120407;28;20485;-61
2021/05/03 05:34:32;;;;;;;13.67;7.70;;;;;;;6.42;61.48;100771.50;5112010;28;20446;-61
2021/05/03 05:36:59;;;;;;;9.67;6.93;;;;;;;6.81;61.44;100774.28;5099194;28;20466;-61
2021/05/03 05:39:26;;;;;;;6.97;6.20;;;;;;;7.46;61.12;100774.19;5100008;28;20431;-61
2021/05/03 05:41:52;;;;;;;11.97;8.47;;;;;;;7.21;59.95;100771.56;5099181;28;20478;-62
2021/05/03 05:44:18;;;;;;;7.97;7.13;;;;;;;7.34;58.87;100773.25;5099615;28;20489;-61
2021/05/03 05:46:44;;;;;;;9.63;6.20;;;;;;;7.76;58.59;100777.44;5099860;28;20478;-61
2021/05/03 05:49:11;;;;;;;10.73;6.47;;;;;;;8.18;56.40;100775.31;5100370;28;20433;-62
2021/05/03 05:51:38;;;;;;;8.70;6.97;;;;;;;7.91;57.20;100769.22;5098797;28;20516;-62
2021/05/03 05:54:05;;;;;;;8.70;7.00;;;;;;;8.76;55.03;100772.81;5100675;28;20462;-62
2021/05/03 05:56:32;;;;;;;10.90;6.77;;;;;;;8.72;54.47;100771.38;5099917;28;20987;-63
2021/05/03 05:58:58;;;;;;;9.23;6.60;;;;;;;8.56;55.02;100761.84;5100027;28;20472;-62
2021/05/03 06:01:26;;;;;;;14.77;6.97;;;;;;;8.91;54.11;100774.34;5105488;27;20927;-62
2021/05/03 06:03:53;;;;;;;9.53;5.90;;;;;;;8.76;54.18;100770.16;5100495;28;20486;-63
2021/05/03 06:06:19;;;;;;;13.07;7.03;;;;;;;9.72;52.39;100767.16;5102335;28;20861;-63
2021/05/03 06:08:45;;;;;;;9.70;6.10;;;;;;;10.26;49.79;100767.28;5104378;28;20434;-62
2021/05/03 06:11:11;;;;;;;11.03;5.60;;;;;;;10.24;49.82;100761.22;5103217;28;20478;-62
2021/05/03 06:13:38;;;;;;;8.30;5.90;;;;;;;10.49;49.48;100768.09;5103361;28;20478;-62
2021/05/03 06:16:05;;;;;;;8.73;6.57;;;;;;;9.79;51.34;100767.47;5117013;28;20465;-62
2021/05/03 06:18:31;;;;;;;7.13;5.50;;;;;;;10.76;49.00;100762.25;5124499;28;20446;-62
2021/05/03 06:20:57;;;;;;;12.67;6.77;;;;;;;11.16;48.36;100769.56;5122770;28;20480;-62
2021/05/03 06:23:24;;;;;;;8.87;6.60;;;;;;;10.67;48.48;100766.56;5123532;28;20896;-62
2021/05/03 06:25:50;;;;;;;8.50;6.67;;;;;;;10.28;49.96;100763.53;5123764;28;20503;-62
2021/05/03 06:28:16;;;;;;;9.43;6.50;;;;;;;9.55;51.92;100762.31;5123485;28;20445;-62
2021/05/03 06:30:45;;;;;;;8.87;6.90;;;;;;;10.95;48.69;100766.91;5113088;28;20467;-62
2021/05/03 06:33:11;;;;;;;12.80;6.57;;;;;;;13.35;43.25;100761.50;5103291;28;20451;-63
2021/05/03 06:35:37;;;;;;;8.10;6.10;;;;;;;12.62;43.56;100761.19;5102285;28;20466;-63
2021/05/03 06:38:05;;;;;;;10.30;7.23;;;;;;;11.54;46.39;100759.19;5103751;28;20454;-62
2021/05/03 06:40:32;;;;;;;11.33;8.30;;;;;;;11.67;46.08;100757.16;5102789;28;20493;-61
2021/05/03 06:42:58;;;;;;;14.40;6.90;;;;;;;11.75;46.45;100759.16;5102149;28;20490;-62
2021/05/03 06:45:24;;;;;;;10.17;6.63;;;;;;;11.25;47.78;100746.53;5110964;28;20823;-61
2021/05/03 06:47:51;;;;;;;9.40;6.40;;;;;;;11.47;47.80;100750.84;5083041;28;20448;-61
2021/05/03 06:50:19;;;;;;;12.10;8.40;;;;;;;12.51;44.91;100761.31;5081245;28;20570;-62
2021/05/03 06:52:45;;;;;;;9.93;7.30;;;;;;;11.18;47.50;100761.41;5088103;28;20455;-65
2021/05/03 06:55:13;;;;;;;8.17;7.20;;;;;;;11.42;47.55;100763.78;5100998;28;20454;-64
2021/05/03 06:57:39;;;;;;;8.67;7.47;;;;;;;11.80;47.55;100767.63;5094461;28;20444;-65
2021/05/03 07:00:07;;;;;;;12.67;7.90;;;;;;;10.96;49.08;100763.25;5097307;28;20439;-65
2021/05/03 07:02:33;;;;;;;8.97;7.27;;;;;;;11.56;48.10;100762.59;5102041;28;20462;-66
2021/05/03 07:05:00;;;;;;;7.97;6.53;;;;;;;10.86;49.04;100765.00;5097393;28;20469;-66
2021/05/03 07:07:26;;;;;;;7.90;6.40;;;;;;;10.28;51.33;100771.53;5102559;28;20486;-67
2021/05/03 07:09:52;;;;;;;8.43;6.60;;;;;;;11.22;49.19;100766.38;5102346;28;20447;-63
2021/05/03 07:12:21;;;;;;;13.50;7.23;;;;;;;11.74;47.69;100770.84;5101039;28;20482;-65
2021/05/03 07:14:47;;;;;;;9.83;8.03;;;;;;;12.98;45.30;100761.41;5115855;28;20462;-63
2021/05/03 07:17:14;;;;;;;9.37;6.70;;;;;;;12.86;44.77;100751.81;5100122;28;20467;-62
2021/05/03 07:19:40;;;;;;;13.27;8.33;;;;;;;11.27;48.17;100748.09;5101643;28;20956;-64
2021/05/03 07:22:08;;;;;;;11.10;7.43;;;;;;;12.79;45.53;100755.09;5096885;28;20483;-64
2021/05/03 07:24:36;;;;;;;14.33;7.03;;;;;;;13.68;43.04;100758.41;5102105;28;20493;-63
2021/05/03 07:27:02;;;;;;;13.30;7.60;;;;;;;13.54;43.17;100752.53;5101341;28;20459;-65
2021/05/03 07:29:28;;;;;;;8.97;6.30;;;;;;;13.06;43.93;100753.50;5102488;28;20439;-65
2021/05/03 07:31:55;;;;;;;9.53;5.53;;;;;;;12.70;44.06;100747.03;5122195;28;20458;-69
2021/05/03 07:34:21;;;;;;;6.20;4.87;;;;;;;14.00;42.51;100743.69;5121846;28;20425;-65
2021/05/03 07:36:48;;;;;;;6.17;5.33;;;;;;;14.22;40.92;100739.72;5102473;28;20474;-65
2021/05/03 07:39:15;;;;;;;7.53;5.07;;;;;;;13.53;42.46;100744.63;5102053;28;20439;-64
2021/05/03 07:41:41;;;;;;;6.83;5.20;;;;;;;13.68;41.64;100739.59;5099034;28;20478;-67
2021/05/03 07:44:08;;;;;;;6.30;4.93;;;;;;;14.06;40.26;100745.75;5100936;28;20486;-64
2021/05/03 07:46:34;;;;;;;10.83;5.43;;;;;;;13.15;42.17;100743.72;5118749;27;20466;-65
2021/05/03 07:49:01;;;;;;;59.53;10.53;;;;;;;12.81;44.18;100741.50;5102061;28;20439;-65
2021/05/03 07:51:28;;;;;;;64.63;12.90;;;;;;;12.40;44.04;100740.84;5100544;28;20475;-63
2021/05/03 07:53:55;;;;;;;20.17;7.33;;;;;;;12.53;44.38;100736.03;5101330;28;20439;-63
2021/05/03 07:56:22;;;;;;;46.63;9.23;;;;;;;14.44;41.17;100738.41;5100652;28;20554;-63
2021/05/03 07:58:50;;;;;;;5.77;5.10;;;;;;;14.57;39.71;100740.72;5101646;28;20459;-69
2021/05/03 08:01:17;;;;;;;8.03;6.20;;;;;;;15.74;36.36;100731.41;5114362;28;20474;-66
2021/05/03 08:03:43;;;;;;;11.77;5.70;;;;;;;16.14;36.49;100735.25;5108268;28;20487;-67
2021/05/03 08:06:13;;;;;;;6.00;4.80;;;;;;;14.00;39.34;100736.44;5101030;27;20573;-65
2021/05/03 08:08:40;;;;;;;86.67;16.10;;;;;;;15.12;37.94;100731.56;5101148;28;20431;-65
2021/05/03 08:11:06;;;;;;;6.07;4.60;;;;;;;13.65;39.23;100742.59;5098740;28;20478;-67
2021/05/03 08:13:33;;;;;;;5.53;5.03;;;;;;;13.93;39.96;100730.00;5101824;28;20450;-66
2021/05/03 08:16:01;;;;;;;7.40;5.30;;;;;;;13.96;40.27;100734.22;5101121;28;20988;-67
2021/05/03 08:18:28;;;;;;;7.93;5.10;;;;;;;13.80;39.73;100742.94;5099745;28;20467;-66
2021/05/03 08:20:54;;;;;;;8.63;6.20;;;;;;;13.80;39.87;100730.38;5100301;28;20525;-66
2021/05/03 08:23:21;;;;;;;6.07;5.43;;;;;;;15.03;36.84;100736.06;5100681;28;20482;-66
2021/05/03 08:25:48;;;;;;;6.97;5.40;;;;;;;14.45;37.96;100724.81;5099872;28;20548;-65
2021/05/03 08:28:14;;;;;;;8.77;5.60;;;;;;;15.73;35.13;100727.88;5101007;28;20465;-66
2021/05/03 08:30:42;;;;;;;6.80;5.70;;;;;;;16.00;34.04;100726.81;5100323;28;20462;-66
2021/05/03 08:33:08;;;;;;;7.87;5.60;;;;;;;16.04;34.94;100732.72;5099834;28;20443;-69
2021/05/03 08:35:35;;;;;;;7.87;5.17;;;;;;;18.18;31.56;100727.00;5100514;28;20645;-67
2021/05/03 08:38:01;;;;;;;5.57;5.03;;;;;;;19.09;28.61;100719.00;5101093;28;20435;-64
2021/05/03 08:40:28;;;;;;;7.43;4.77;;;;;;;18.33;30.40;100718.94;5099225;28;20466;-65
2021/05/03 08:42:55;;;;;;;6.27;5.37;;;;;;;17.81;30.72;100723.09;5100883;28;20535;-63
2021/05/03 08:45:22;;;;;;;6.13;5.27;;;;;;;17.50;30.99;100718.50;5107470;27;20454;-66
2021/05/03 08:48:01;;;;;;;5.00;4.50;;;;;;;18.03;30.73;100711.50;5116487;28;20482;-66
2021/05/03 08:50:46;;;;;;;5.70;4.80;;;;;;;18.90;29.36;100707.66;5100451;28;20470;-67
2021/05/03 08:53:14;;;;;;;6.40;5.50;;;;;;;18.64;28.91;100710.75;5089638;28;20494;-67
2021/05/03 08:55:40;;;;;;;7.17;4.97;;;;;;;18.72;29.04;100702.56;5096961;27;20554;-65
2021/05/03 08:58:08;;;;;;;5.43;4.53;;;;;;;18.25;29.10;100700.91;5101201;28;20455;-63
2021/05/03 09:00:35;;;;;;;10.40;6.00;;;;;;;17.69;29.92;100699.16;5108353;28;20533;-64
2021/05/03 09:03:05;;;;;;;8.03;4.90;;;;;;;17.53;30.42;100709.19;5102047;28;20443;-63
2021/05/03 09:05:32;;;;;;;5.10;4.57;;;;;;;16.65;32.14;100697.38;5100727;28;20862;-70
2021/05/03 09:07:58;;;;;;;6.60;4.63;;;;;;;16.41;31.87;100692.81;5100874;28;20458;-67
2021/05/03 09:10:25;;;;;;;6.97;5.00;;;;;;;16.34;32.68;100696.16;5097849;28;20462;-68
2021/05/03 09:12:51;;;;;;;8.83;5.27;;;;;;;16.53;32.71;100689.59;5101191;28;20443;-66
2021/05/03 09:15:24;;;;;;;10.37;4.90;;;;;;;17.06;31.38;100694.63;5100514;28;20951;-67
2021/05/03 09:17:51;;;;;;;6.23;4.90;;;;;;;15.93;32.79;100684.47;5100262;28;20466;-67
2021/05/03 09:20:20;;;;;;;7.40;5.03;;;;;;;15.30;32.77;100685.75;5100294;27;20461;-66
2021/05/03 09:22:51;;;;;;;6.23;4.60;;;;;;;15.31;32.99;100677.50;5099999;28;20489;-63
2021/05/03 09:25:24;;;;;;;9.50;5.30;;;;;;;16.65;31.81;100682.00;5098913;28;20448;-64
2021/05/03 09:28:06;;;;;;;11.80;5.73;;;;;;;15.89;32.30;100675.03;5099642;28;20443;-65
2021/05/03 09:30:34;;;;;;;7.00;5.57;;;;;;;15.37;33.31;100667.91;5100239;28;20524;-64
2021/05/03 09:33:19;;;;;;;6.33;5.07;;;;;;;15.76;31.54;100662.88;5098980;28;20459;-64
2021/05/03 09:35:48;;;;;;;6.10;4.80;;;;;;;15.15;32.51;100661.25;5099758;28;21006;-66
2021/05/03 09:38:28;;;;;;;8.43;5.47;;;;;;;15.20;32.51;100664.28;5101323;28;20483;-66
2021/05/03 09:41:17;;;;;;;6.13;5.43;;;;;;;15.18;32.23;100663.63;5116115;27;20924;-63
2021/05/03 09:43:47;;;;;;;7.30;4.93;;;;;;;14.97;33.02;100656.75;5104218;28;20486;-65
2021/05/03 09:46:31;;;;;;;7.00;4.93;;;;;;;15.40;33.63;100662.22;5103192;28;20518;-65
2021/05/03 09:48:59;;;;;;;5.63;4.43;;;;;;;14.52;34.44;100654.25;5110176;28;20479;-65
2021/05/03 09:51:40;;;;;;;6.10;5.10;;;;;;;14.50;33.87;100652.53;5111371;27;20475;-65
2021/05/03 09:54:09;;;;;;;10.63;5.80;;;;;;;14.08;35.07;100655.88;5092430;28;20451;-65
2021/05/03 09:57:01;;;;;;;6.90;4.50;;;;;;;15.32;31.96;100644.16;5103745;28;20519;-62
2021/05/03 09:59:32;;;;;;;9.93;4.80;;;;;;;16.78;30.42;100643.69;5089429;28;20442;-65
2021/05/03 10:02:07;;;;;;;4.93;4.07;;;;;;;16.41;28.91;100623.50;5081585;28;20468;-66
2021/05/03 10:04:34;;;;;;;7.20;4.53;;;;;;;17.40;28.27;100631.38;5101608;28;20474;-65
2021/05/03 10:07:03;;;;;;;6.40;4.57;;;;;;;16.15;30.04;100627.19;5102592;28;20475;-65
2021/05/03 10:09:30;;;;;;;6.87;4.30;;;;;;;16.85;28.22;100635.78;5102628;28;21003;-66
2021/05/03 10:11:57;;;;;;;5.20;4.33;;;;;;;18.14;27.18;100629.09;5102798;28;21040;-65
2021/05/03 10:14:24;;;;;;;5.53;4.20;;;;;;;18.64;25.84;100624.06;5105276;28;20504;-65
2021/05/03 10:16:51;;;;;;;7.97;4.50;;;;;;;17.98;27.33;100611.09;5104849;28;21021;-63
2021/05/03 10:19:20;;;;;;;6.53;4.13;;;;;;;17.11;26.38;100622.03;5106635;28;20451;-65
2021/05/03 10:21:47;;;;;;;4.83;4.37;;;;;;;16.22;27.56;100621.97;5101325;28;20471;-63
2021/05/03 10:24:15;;;;;;;6.30;4.20;;;;;;;15.78;28.32;100622.28;5108765;28;20535;-64
2021/05/03 10:26:41;;;;;;;4.40;4.00;;;;;;;15.47;29.68;100620.13;5118275;28;20475;-65
2021/05/03 10:29:08;;;;;;;5.53;4.57;;;;;;;15.68;28.86;100617.00;5112300;28;20449;-65
2021/05/03 10:31:57;;;;;;;5.20;4.60;;;;;;;15.97;29.09;100621.97;5104568;28;20542;-66
2021/05/03 10:34:41;;;;;;;5.30;4.40;;;;;;;14.92;29.92;100615.19;5105456;28;20439;-66
2021/05/03 10:37:41;;;;;;;5.83;4.43;;;;;;;15.19;29.81;100625.75;5109511;28;20470;-64
2021/05/03 10:40:47;;;;;;;5.40;4.37;;;;;;;15.19;29.77;100600.66;5018289;28;20443;-64
2021/05/03 10:43:18;;;;;;;4.27;3.87;;;;;;;15.89;29.29;100615.72;5020051;28;20813;-65
2021/05/03 10:45:52;;;;;;;8.97;4.67;;;;;;;15.53;28.83;100615.94;5028577;28;20470;-64
2021/05/03 10:48:38;;;;;;;6.23;5.10;;;;;;;16.66;28.12;100597.28;5030437;28;20483;-65
2021/05/03 10:51:08;;;;;;;5.83;4.10;;;;;;;16.36;28.15;100590.78;5036378;28;20477;-65
2021/05/03 10:53:37;;;;;;;6.77;5.30;;;;;;;16.33;27.83;100591.94;5018075;28;20450;-64
2021/05/03 10:56:05;;;;;;;6.80;4.50;;;;;;;17.08;27.02;100573.75;5021899;28;20470;-65
2021/05/03 10:59:08;;;;;;;6.23;4.23;;;;;;;17.71;26.22;100574.59;5020293;28;20451;-65
2021/05/03 11:02:09;;;;;;;4.80;4.20;;;;;;;19.21;24.72;100568.44;5035798;28;20505;-64
2021/05/03 11:04:37;;;;;;;5.90;3.83;;;;;;;19.86;23.67;100569.41;5022876;28;20567;-64
2021/05/03 11:07:08;;;;;;;4.90;3.93;;;;;;;18.62;23.88;100571.97;5024792;28;20479;-64
2021/05/03 11:09:38;;;;;;;8.30;5.10;;;;;;;18.72;23.88;100552.75;5018356;28;20447;-64
2021/05/03 11:12:29;;;;;;;9.13;4.60;;;;;;;19.21;23.21;100559.47;5018578;28;20486;-65
2021/05/03 11:15:11;;;;;;;6.97;4.80;;;;;;;18.15;24.90;100559.56;5082750;28;20447;-63
2021/05/03 11:17:38;;;;;;;8.07;4.90;;;;;;;16.95;26.00;100544.59;5082186;28;20743;-64
2021/05/03 11:20:08;;;;;;;6.10;4.50;;;;;;;18.24;24.65;100548.50;5081976;28;20431;-64
2021/05/03 11:22:43;;;;;;;5.40;4.90;;;;;;;17.85;25.20;100563.00;5101055;28;20487;-63
2021/05/03 11:25:11;;;;;;;5.40;4.90;;;;;;;17.72;25.69;100551.09;5100684;28;21044;-64
2021/05/03 11:27:44;;;;;;;5.73;4.77;;;;;;;16.48;27.13;100551.63;5102402;28;20838;-65
2021/05/03 11:30:15;;;;;;;7.83;5.00;;;;;;;15.86;28.96;100551.34;5093107;28;20514;-64
2021/05/03 11:32:42;;;;;;;5.40;4.60;;;;;;;16.34;27.62;100555.84;5090864;28;21104;-64
2021/05/03 11:35:21;;;;;;;7.73;5.43;;;;;;;18.02;26.47;100539.41;5100559;27;20436;-64
2021/05/03 11:37:53;;;;;;;8.00;4.50;;;;;;;18.33;25.27;100533.03;5101089;28;20443;-65
2021/05/03 11:40:33;;;;;;;6.97;4.40;;;;;;;19.31;24.26;100527.47;5101089;28;20592;-66
2021/05/03 11:45:41;;;;;;;5.80;5.00;;;;;;;19.33;24.34;100538.97;5102421;28;20490;-64